Arkansaw, Wisconsin
Current Conditions -  °F | °C
As of 6:35 AM on Sunday 21 Dec 2014 (Local Time) from KLUM Reporting Station
Haze Haze  
Wind Chill: 23°   Ceiling: 700
Heat Index: 32°   Visibility: 2mi
Dew Point: 30°   Wind: 12mph
Humidity: 94%   Direction: 110°ESE
Pressure: 29.98"   Gusts: NA
Location:  44.63°N, 92.03°W
Report Text: KLUM 211235Z AUTO 11010KT 2SM BR OVC007 00/M01 A2998 RMK AO2 T10021010
Loading
Personal Weather Stations






























Interactive Weather Map New forecast layout! Learn more

10-Day Weather Forecast

Advertisements
Track Severe Weather on mobile